createdAt,value
2019-05-21T00:00:31.545Z,12.70
2019-05-21T00:03:36.718Z,12.20
2019-05-21T00:06:41.766Z,11.73
2019-05-21T00:09:46.890Z,12.10
2019-05-21T00:12:51.960Z,12.63
2019-05-21T00:15:57.032Z,12.60
2019-05-21T00:19:02.138Z,14.47
2019-05-21T00:22:07.274Z,14.13
2019-05-21T00:25:16.743Z,13.23
2019-05-21T00:28:39.930Z,12.70
2019-05-21T00:32:21.334Z,12.50
2019-05-21T00:36:02.462Z,11.50
2019-05-21T00:39:43.676Z,12.23
2019-05-21T00:42:48.928Z,10.77
2019-05-21T00:45:54.078Z,10.70
2019-05-21T00:48:59.252Z,10.80
2019-05-21T00:52:08.553Z,9.70
2019-05-21T00:55:11.601Z,11.00
2019-05-21T00:58:16.743Z,9.73
2019-05-21T01:01:22.076Z,10.40
2019-05-21T01:04:27.196Z,10.07
2019-05-21T01:07:32.396Z,9.80
2019-05-21T01:10:37.536Z,9.53
2019-05-21T01:13:42.732Z,9.87
2019-05-21T01:16:47.845Z,9.27
2019-05-21T01:19:53.017Z,8.43
2019-05-21T01:22:58.739Z,9.07
2019-05-21T01:26:03.902Z,8.63
2019-05-21T01:29:09.069Z,8.27
2019-05-21T01:32:14.260Z,8.27
2019-05-21T01:35:19.406Z,9.57
2019-05-21T01:38:24.512Z,9.07
2019-05-21T01:41:29.815Z,8.97
2019-05-21T01:44:35.009Z,9.47
2019-05-21T01:47:40.312Z,9.33
2019-05-21T01:50:45.624Z,9.40
2019-05-21T01:53:50.829Z,8.43
2019-05-21T01:56:56.002Z,8.40
2019-05-21T02:00:01.254Z,7.67
2019-05-21T02:03:06.385Z,7.43
2019-05-21T02:06:11.557Z,6.70
2019-05-21T02:09:16.730Z,6.50
2019-05-21T02:12:21.915Z,7.23
2019-05-21T02:15:27.041Z,6.60
2019-05-21T02:18:32.278Z,6.73
2019-05-21T02:21:37.398Z,6.60
2019-05-21T02:24:42.562Z,6.60
2019-05-21T02:27:47.743Z,5.73
2019-05-21T02:30:56.452Z,6.10
2019-05-21T02:34:00.003Z,5.93
2019-05-21T02:37:06.316Z,5.80
2019-05-21T02:40:15.121Z,5.33
2019-05-21T02:43:20.223Z,5.37
2019-05-21T02:46:25.361Z,4.70
2019-05-21T02:49:30.565Z,5.17
2019-05-21T02:52:35.723Z,4.50
2019-05-21T02:55:40.904Z,4.07
2019-05-21T02:58:46.134Z,5.47
2019-05-21T03:02:00.513Z,5.00
2019-05-21T03:05:06.405Z,4.37
2019-05-21T03:08:11.552Z,4.23
2019-05-21T03:11:16.840Z,4.00
2019-05-21T03:14:22.060Z,3.30
2019-05-21T03:17:27.207Z,3.20
2019-05-21T03:20:32.372Z,3.10
2019-05-21T03:23:37.562Z,2.40
2019-05-21T03:26:42.677Z,2.20
2019-05-21T03:29:47.833Z,2.17
2019-05-21T03:32:52.952Z,1.80
2019-05-21T03:35:58.199Z,1.53
2019-05-21T03:39:04.023Z,1.20
2019-05-21T03:42:09.219Z,1.40
2019-05-21T03:45:14.413Z,1.20
2019-05-21T03:48:19.584Z,1.20
2019-05-21T03:51:24.820Z,1.10
2019-05-21T03:54:29.939Z,0.83
2019-05-21T03:57:35.194Z,0.90
2019-05-21T04:00:40.323Z,0.60
2019-05-21T04:03:45.481Z,0.90
2019-05-21T04:06:52.575Z,0.97
2019-05-21T04:09:57.529Z,0.60
2019-05-21T04:13:06.683Z,0.63
2019-05-21T04:16:18.224Z,0.80
2019-05-21T04:19:26.877Z,1.00
2019-05-21T04:22:31.990Z,0.60
2019-05-21T04:25:37.131Z,1.00
2019-05-21T04:28:42.325Z,0.90
2019-05-21T04:31:47.455Z,0.70
2019-05-21T04:34:52.594Z,0.60
2019-05-21T04:37:57.712Z,0.60
2019-05-21T04:41:03.009Z,0.60
2019-05-21T04:44:08.147Z,0.60
2019-05-21T04:47:13.407Z,0.50
2019-05-21T04:50:20.261Z,0.50
2019-05-21T04:53:25.452Z,0.47
2019-05-21T04:56:30.589Z,0.60
2019-05-21T04:59:36.999Z,0.40
2019-05-21T05:02:42.178Z,0.40
2019-05-21T05:05:48.508Z,0.50
2019-05-21T05:08:53.771Z,0.50
2019-05-21T05:11:59.243Z,0.40
2019-05-21T05:15:05.347Z,0.40
2019-05-21T05:18:10.488Z,0.40
2019-05-21T05:21:15.695Z,0.40
2019-05-21T05:24:20.978Z,0.30
2019-05-21T05:27:26.237Z,0.43
2019-05-21T05:30:31.405Z,0.43
2019-05-21T05:33:36.467Z,0.50
2019-05-21T05:36:41.688Z,0.50
2019-05-21T05:39:46.934Z,0.87
2019-05-21T05:42:52.271Z,0.40
2019-05-21T05:45:57.483Z,0.40
2019-05-21T05:49:08.737Z,0.50
2019-05-21T05:52:13.926Z,0.37
2019-05-21T05:55:19.181Z,0.40
2019-05-21T05:58:24.467Z,0.30
2019-05-21T06:01:31.373Z,0.47
2019-05-21T06:04:36.638Z,0.50
2019-05-21T06:07:41.967Z,0.30
2019-05-21T06:10:47.087Z,0.40
2019-05-21T06:13:52.264Z,0.50
2019-05-21T06:16:57.395Z,0.50
2019-05-21T06:20:02.581Z,0.30
2019-05-21T06:23:07.719Z,0.30
2019-05-21T06:26:12.878Z,0.60
2019-05-21T06:29:18.091Z,0.50
2019-05-21T06:32:23.221Z,0.50
2019-05-21T06:35:28.357Z,0.40
2019-05-21T06:38:33.500Z,0.30
2019-05-21T06:41:38.632Z,0.50
2019-05-21T06:44:44.866Z,0.30
2019-05-21T06:47:50.067Z,0.27
2019-05-21T06:50:55.190Z,0.37
2019-05-21T06:54:00.395Z,0.30
2019-05-21T06:57:05.625Z,0.40
2019-05-21T07:00:11.283Z,0.30
2019-05-21T07:03:16.432Z,0.30
2019-05-21T07:06:22.465Z,0.27
2019-05-21T07:09:27.595Z,0.20
2019-05-21T07:12:32.738Z,0.33
2019-05-21T07:15:37.888Z,0.40
2019-05-21T07:18:43.018Z,0.20
2019-05-21T07:21:49.159Z,0.50
2019-05-21T07:24:55.189Z,0.40
2019-05-21T07:28:00.501Z,0.30
2019-05-21T07:31:05.646Z,0.40
2019-05-21T07:34:10.771Z,0.47
2019-05-21T07:37:15.944Z,0.43
2019-05-21T07:40:21.195Z,0.40
2019-05-21T07:43:26.539Z,0.57
2019-05-21T07:46:31.746Z,0.40
2019-05-21T07:49:36.967Z,0.40
2019-05-21T07:52:42.156Z,0.30
2019-05-21T07:55:47.340Z,0.40
2019-05-21T07:58:53.670Z,0.50
2019-05-21T08:01:58.858Z,0.50
2019-05-21T08:05:04.323Z,0.50
2019-05-21T08:08:09.502Z,0.40
2019-05-21T08:11:14.716Z,0.30
2019-05-21T08:14:19.962Z,0.40
2019-05-21T08:17:25.157Z,0.37
2019-05-21T08:20:30.539Z,0.40
2019-05-21T08:23:35.712Z,0.40
2019-05-21T08:26:40.933Z,0.40
2019-05-21T08:29:46.076Z,0.50
2019-05-21T08:32:51.198Z,0.60
2019-05-21T08:35:57.299Z,0.80
2019-05-21T08:39:02.476Z,0.70
2019-05-21T08:42:07.919Z,0.80
2019-05-21T08:45:13.995Z,0.80
2019-05-21T08:48:19.121Z,0.80
2019-05-21T08:51:24.296Z,1.07
2019-05-21T08:54:56.444Z,0.87
2019-05-21T08:58:06.885Z,0.87
2019-05-21T09:01:08.274Z,0.80
2019-05-21T09:04:13.522Z,0.90
2019-05-21T09:07:18.735Z,0.70
2019-05-21T09:10:23.867Z,1.00
2019-05-21T09:13:29.060Z,0.70
2019-05-21T09:16:34.386Z,1.13
2019-05-21T09:19:39.593Z,0.80
2019-05-21T09:22:44.848Z,0.90
2019-05-21T09:25:50.077Z,0.80
2019-05-21T09:28:55.194Z,1.03
2019-05-21T09:32:00.402Z,1.00
2019-05-21T09:35:06.435Z,1.10
2019-05-21T09:38:11.580Z,1.20
2019-05-21T09:41:16.729Z,1.30
2019-05-21T09:44:21.931Z,1.20
2019-05-21T09:47:27.137Z,1.47
2019-05-21T09:50:32.282Z,0.90
2019-05-21T09:53:37.457Z,1.30
2019-05-21T09:56:42.649Z,1.30
2019-05-21T10:00:02.488Z,1.60
2019-05-21T10:03:11.923Z,1.60
2019-05-21T10:06:17.075Z,2.20
2019-05-21T10:09:22.236Z,2.17
2019-05-21T10:12:27.373Z,2.33
2019-05-21T10:15:32.642Z,2.50
2019-05-21T10:18:37.936Z,2.90
2019-05-21T10:21:43.113Z,3.30
2019-05-21T10:24:48.390Z,3.60
2019-05-21T10:27:53.570Z,3.27
2019-05-21T10:30:58.769Z,3.47
2019-05-21T10:34:05.174Z,3.77
2019-05-21T10:37:10.372Z,3.20
2019-05-21T10:40:15.995Z,3.50
2019-05-21T10:43:21.213Z,3.40
2019-05-21T10:46:26.454Z,4.00
2019-05-21T10:49:31.628Z,4.20
2019-05-21T10:52:36.763Z,3.90
2019-05-21T10:55:41.967Z,3.33
2019-05-21T10:58:47.147Z,4.23
2019-05-21T11:02:10.054Z,4.07
2019-05-21T11:05:19.734Z,3.73
2019-05-21T11:08:25.519Z,4.53
2019-05-21T11:11:30.888Z,4.30
2019-05-21T11:14:36.019Z,4.33
2019-05-21T11:17:58.984Z,4.63
2019-05-21T11:20:48.025Z,4.27
2019-05-21T11:23:53.268Z,3.83
2019-05-21T11:26:58.659Z,4.20
2019-05-21T11:30:04.234Z,3.63
2019-05-21T11:33:09.764Z,4.17
2019-05-21T11:36:15.390Z,4.20
2019-05-21T11:39:20.578Z,4.13
2019-05-21T11:42:25.799Z,4.27
2019-05-21T11:45:32.988Z,4.10
2019-05-21T11:48:39.077Z,4.80
2019-05-21T11:51:44.184Z,4.63
2019-05-21T11:54:49.328Z,4.97
2019-05-21T11:57:54.472Z,4.73
2019-05-21T12:00:59.636Z,4.83
2019-05-21T12:04:04.870Z,5.23
2019-05-21T12:07:10.132Z,5.10
2019-05-21T12:10:15.274Z,4.93
2019-05-21T12:13:20.831Z,5.17
2019-05-21T12:16:26.033Z,5.23
2019-05-21T12:19:31.235Z,5.17
2019-05-21T12:22:36.401Z,4.50
2019-05-21T12:25:41.574Z,5.30
2019-05-21T12:28:46.822Z,4.70
2019-05-21T12:31:52.031Z,5.23
2019-05-21T12:34:57.224Z,5.30
2019-05-21T12:38:02.526Z,4.90
2019-05-21T12:41:07.750Z,5.17
2019-05-21T12:44:12.931Z,5.33
2019-05-21T12:47:18.113Z,5.33
2019-05-21T12:50:25.004Z,5.90
2019-05-21T12:53:30.148Z,5.70
2019-05-21T12:56:35.370Z,5.50
2019-05-21T12:59:40.467Z,5.63
2019-05-21T13:02:45.751Z,5.83
2019-05-21T13:05:51.003Z,5.80
2019-05-21T13:08:56.297Z,5.93
2019-05-21T13:12:01.568Z,5.50
2019-05-21T13:15:07.476Z,5.57
2019-05-21T13:18:12.716Z,6.03
2019-05-21T13:21:17.849Z,5.40
2019-05-21T13:24:23.142Z,5.57
2019-05-21T13:27:28.369Z,5.40
2019-05-21T13:30:33.630Z,5.00
2019-05-21T13:33:38.869Z,4.90
2019-05-21T13:36:44.113Z,5.37
2019-05-21T13:39:50.692Z,4.60
2019-05-21T13:42:56.008Z,4.93
2019-05-21T13:46:01.200Z,5.10
2019-05-21T13:49:06.524Z,4.63
2019-05-21T13:52:12.054Z,4.40
2019-05-21T13:55:17.566Z,4.97
2019-05-21T13:58:22.803Z,4.70
2019-05-21T14:01:40.204Z,4.37
2019-05-21T14:04:35.504Z,4.57
2019-05-21T14:07:40.970Z,4.63
2019-05-21T14:10:46.601Z,5.10
2019-05-21T14:13:51.815Z,4.43
2019-05-21T14:16:57.043Z,4.33
2019-05-21T14:20:03.190Z,4.40
2019-05-21T14:23:08.493Z,4.90
2019-05-21T14:26:13.757Z,4.47
2019-05-21T14:29:19.108Z,4.77
2019-05-21T14:32:24.269Z,4.37
2019-05-21T14:35:29.371Z,4.63
2019-05-21T14:38:34.589Z,4.40
2019-05-21T14:41:39.761Z,4.83
2019-05-21T14:44:44.942Z,4.73
2019-05-21T14:47:50.082Z,4.83
2019-05-21T14:50:55.258Z,4.50
2019-05-21T14:54:03.999Z,4.77
2019-05-21T14:57:12.452Z,4.60
2019-05-21T15:00:24.929Z,4.57
2019-05-21T15:03:30.180Z,4.20
2019-05-21T15:06:35.390Z,4.30
2019-05-21T15:09:41.647Z,5.40
2019-05-21T15:12:46.876Z,6.40
2019-05-21T15:15:52.131Z,5.33
2019-05-21T15:18:57.340Z,5.50
2019-05-21T15:22:02.550Z,5.70
2019-05-21T15:25:08.323Z,6.07
2019-05-21T15:28:13.500Z,6.57
2019-05-21T15:31:18.726Z,6.50
2019-05-21T15:34:23.961Z,7.80
2019-05-21T15:37:29.201Z,7.10
2019-05-21T15:40:34.535Z,8.27
2019-05-21T15:43:39.681Z,7.77
2019-05-21T15:46:49.964Z,9.10
2019-05-21T15:49:51.725Z,7.90
2019-05-21T15:52:57.444Z,6.77
2019-05-21T15:56:02.790Z,7.87
2019-05-21T15:59:08.172Z,7.30
2019-05-21T16:02:14.527Z,8.37
2019-05-21T16:05:19.704Z,6.87
2019-05-21T16:08:24.865Z,8.17
2019-05-21T16:11:30.154Z,7.63
2019-05-21T16:14:35.322Z,7.40
2019-05-21T16:17:40.520Z,7.37
2019-05-21T16:20:45.738Z,6.47
2019-05-21T16:23:50.937Z,6.87
2019-05-21T16:26:57.140Z,6.17
2019-05-21T16:30:02.334Z,5.77
2019-05-21T16:33:07.686Z,5.77
2019-05-21T16:36:13.048Z,6.10
2019-05-21T16:39:20.038Z,5.93
2019-05-21T16:42:25.217Z,5.00
2019-05-21T16:45:30.369Z,4.57
2019-05-21T16:48:35.536Z,5.53
2019-05-21T16:51:43.437Z,5.03
2019-05-21T16:54:47.647Z,6.90
2019-05-21T16:57:56.066Z,5.17
2019-05-21T17:01:00.558Z,5.70
2019-05-21T17:04:05.814Z,5.67
2019-05-21T17:07:11.024Z,5.77
2019-05-21T17:10:16.961Z,7.03
2019-05-21T17:13:22.182Z,6.90
2019-05-21T17:16:27.374Z,7.07
2019-05-21T17:19:32.686Z,7.50
2019-05-21T17:22:37.926Z,8.50
2019-05-21T17:25:43.128Z,8.70
2019-05-21T17:28:48.248Z,8.70
2019-05-21T17:31:55.979Z,8.40
2019-05-21T17:35:01.347Z,8.50
2019-05-21T17:38:06.507Z,7.83
2019-05-21T17:41:11.755Z,6.80
2019-05-21T17:44:16.825Z,7.07
2019-05-21T17:47:22.077Z,7.80
2019-05-21T17:50:27.469Z,7.23
2019-05-21T17:53:32.608Z,7.27
2019-05-21T17:56:37.779Z,8.30
2019-05-21T17:59:43.050Z,8.23
2019-05-21T18:02:49.766Z,7.60
2019-05-21T18:05:56.477Z,7.83
2019-05-21T18:09:08.022Z,8.00
2019-05-21T18:12:29.722Z,8.40
2019-05-21T18:15:22.127Z,8.83
2019-05-21T18:18:28.070Z,9.57
2019-05-21T18:21:34.199Z,8.70
2019-05-21T18:24:39.597Z,9.23
2019-05-21T18:27:44.759Z,9.03
2019-05-21T18:30:50.165Z,10.20
2019-05-21T18:33:55.407Z,9.43
2019-05-21T18:37:03.656Z,9.37
2019-05-21T18:40:09.651Z,10.77
2019-05-21T18:43:14.851Z,11.07
2019-05-21T18:46:20.064Z,10.17
2019-05-21T18:49:27.644Z,10.97
2019-05-21T18:52:32.427Z,10.67
2019-05-21T18:55:37.550Z,10.73
2019-05-21T18:58:43.073Z,10.03
2019-05-21T19:01:48.372Z,11.40
2019-05-21T19:04:53.632Z,10.27
2019-05-21T19:07:59.022Z,10.10
2019-05-21T19:11:04.438Z,10.83
2019-05-21T19:14:09.656Z,9.97
2019-05-21T19:17:14.859Z,11.10
2019-05-21T19:20:23.021Z,10.57
2019-05-21T19:23:27.075Z,10.77
2019-05-21T19:26:32.253Z,11.13
2019-05-21T19:29:38.495Z,11.70
2019-05-21T19:32:43.680Z,10.87
2019-05-21T19:35:48.859Z,11.97
2019-05-21T19:38:54.084Z,11.70
2019-05-21T19:41:59.374Z,12.13
2019-05-21T19:45:05.859Z,11.47
2019-05-21T19:48:12.162Z,11.37
2019-05-21T19:51:17.378Z,12.77
2019-05-21T19:54:22.641Z,12.23
2019-05-21T19:57:30.003Z,11.87
2019-05-21T20:00:39.190Z,11.47
2019-05-21T20:03:44.475Z,12.43
2019-05-21T20:06:49.646Z,11.60
2019-05-21T20:09:54.871Z,11.33
2019-05-21T20:13:00.552Z,13.00
2019-05-21T20:16:06.443Z,12.00
2019-05-21T20:19:13.990Z,11.13
2019-05-21T20:22:19.271Z,11.97
2019-05-21T20:25:25.844Z,11.50
2019-05-21T20:28:31.176Z,11.97
2019-05-21T20:31:36.646Z,11.83
2019-05-21T20:34:41.965Z,11.53
2019-05-21T20:37:48.256Z,13.30
2019-05-21T20:40:53.567Z,11.63
2019-05-21T20:43:59.533Z,11.93
2019-05-21T20:47:06.699Z,12.37
2019-05-21T20:50:14.397Z,12.83
2019-05-21T20:53:20.111Z,12.67
2019-05-21T20:56:25.283Z,12.70
2019-05-21T20:59:30.762Z,13.50
2019-05-21T21:02:37.475Z,12.53
2019-05-21T21:05:43.728Z,13.20
2019-05-21T21:08:48.923Z,13.47
2019-05-21T21:11:54.116Z,13.00
2019-05-21T21:15:00.624Z,13.30
2019-05-21T21:18:06.688Z,12.77
2019-05-21T21:21:11.828Z,14.37
2019-05-21T21:24:17.284Z,12.63
2019-05-21T21:27:23.994Z,12.93
2019-05-21T21:30:29.165Z,14.30
2019-05-21T21:33:34.603Z,14.57
2019-05-21T21:36:39.775Z,13.90
2019-05-21T21:39:45.141Z,13.57
2019-05-21T21:42:50.996Z,13.50
2019-05-21T21:45:56.400Z,14.77
2019-05-21T21:49:03.205Z,14.90
2019-05-21T21:52:09.924Z,15.70
2019-05-21T21:55:15.490Z,13.60
2019-05-21T21:58:20.686Z,14.97
2019-05-21T22:01:50.153Z,14.17
2019-05-21T22:04:57.550Z,14.37
2019-05-21T22:08:02.931Z,15.33
2019-05-21T22:11:08.617Z,13.90
2019-05-21T22:14:14.267Z,14.13
2019-05-21T22:17:19.824Z,15.30
2019-05-21T22:20:25.490Z,15.23
2019-05-21T22:24:24.699Z,16.47
2019-05-21T22:27:30.117Z,15.63
2019-05-21T22:30:36.095Z,16.07
2019-05-21T22:33:41.598Z,16.23
2019-05-21T22:36:46.858Z,16.23
2019-05-21T22:39:53.426Z,15.47
2019-05-21T22:42:58.557Z,15.73
2019-05-21T22:46:03.942Z,15.50
2019-05-21T22:49:09.076Z,16.43
2019-05-21T22:52:14.414Z,16.30
2019-05-21T22:55:20.686Z,16.33
2019-05-21T22:58:25.884Z,15.60
2019-05-21T23:01:32.860Z,16.70
2019-05-21T23:04:38.040Z,17.27
2019-05-21T23:07:44.813Z,16.67
2019-05-21T23:10:50.106Z,15.47
2019-05-21T23:13:55.283Z,17.23
2019-05-21T23:17:00.857Z,17.60
2019-05-21T23:20:12.320Z,17.87
2019-05-21T23:23:19.326Z,17.60
2019-05-21T23:26:24.664Z,19.60
2019-05-21T23:29:29.837Z,18.57
2019-05-21T23:32:35.666Z,17.73
2019-05-21T23:35:41.263Z,18.73
2019-05-21T23:38:47.864Z,17.83
2019-05-21T23:41:53.081Z,18.03
2019-05-21T23:44:58.665Z,16.80
2019-05-21T23:48:05.002Z,18.10
2019-05-21T23:51:11.077Z,18.67
2019-05-21T23:54:16.777Z,17.87
2019-05-21T23:57:29.776Z,18.37
